sensor_id;sensor_type;location;lat;lon;timestamp;pressure;altitude;pressure_sealevel;temperature;humidity
13486;BME280;6815;59.336;17.998;2023-07-08T00:00:16;52145.03;;;-145.37;85.52
13486;BME280;6815;59.336;17.998;2023-07-08T00:02:43;52161.03;;;-145.37;86.31
13486;BME280;6815;59.336;17.998;2023-07-08T00:05:15;52178.97;;;-145.37;86.16
13486;BME280;6815;59.336;17.998;2023-07-08T00:07:42;52196.94;;;-145.37;86.16
13486;BME280;6815;59.336;17.998;2023-07-08T00:10:19;52157.03;;;-145.37;85.76
13486;BME280;6815;59.336;17.998;2023-07-08T00:12:48;52184.97;;;-145.37;85.63
13486;BME280;6815;59.336;17.998;2023-07-08T00:15:14;52173.00;;;-145.37;86.12
13486;BME280;6815;59.336;17.998;2023-07-08T00:17:41;52171.00;;;-145.37;86.95
13486;BME280;6815;59.336;17.998;2023-07-08T00:20:21;52175.00;;;-145.37;86.90
13486;BME280;6815;59.336;17.998;2023-07-08T00:22:48;52200.94;;;-145.37;86.61
13486;BME280;6815;59.336;17.998;2023-07-08T00:25:17;52175.00;;;-145.37;86.30
13486;BME280;6815;59.336;17.998;2023-07-08T00:27:45;52178.97;;;-145.37;86.24
13486;BME280;6815;59.336;17.998;2023-07-08T00:30:28;52184.97;;;-145.37;86.33
13486;BME280;6815;59.336;17.998;2023-07-08T00:32:55;52184.97;;;-145.37;86.89
13486;BME280;6815;59.336;17.998;2023-07-08T00:35:34;52254.84;;;-145.37;86.27
13486;BME280;6815;59.336;17.998;2023-07-08T00:41:10;52173.00;;;-145.37;87.32
13486;BME280;6815;59.336;17.998;2023-07-08T00:48:45;52173.00;;;-145.37;86.23
13486;BME280;6815;59.336;17.998;2023-07-08T00:51:11;52135.06;;;-145.37;86.32
13486;BME280;6815;59.336;17.998;2023-07-08T00:53:38;52188.97;;;-145.37;86.70
13486;BME280;6815;59.336;17.998;2023-07-08T00:56:18;52173.00;;;-145.37;86.76
13486;BME280;6815;59.336;17.998;2023-07-08T00:59:03;52133.06;;;-145.37;86.77
13486;BME280;6815;59.336;17.998;2023-07-08T01:01:30;52206.94;;;-145.37;86.47
13486;BME280;6815;59.336;17.998;2023-07-08T01:04:34;52184.97;;;-145.37;86.94
13486;BME280;6815;59.336;17.998;2023-07-08T01:07:02;52196.94;;;-145.37;87.06
13486;BME280;6815;59.336;17.998;2023-07-08T01:09:31;52188.97;;;-145.37;87.11
13486;BME280;6815;59.336;17.998;2023-07-08T01:12:00;52173.00;;;-145.37;87.35
13486;BME280;6815;59.336;17.998;2023-07-08T01:14:30;52153.03;;;-145.37;87.90
13486;BME280;6815;59.336;17.998;2023-07-08T01:17:00;52175.00;;;-145.37;88.22
13486;BME280;6815;59.336;17.998;2023-07-08T01:19:27;52188.97;;;-145.37;88.63
13486;BME280;6815;59.336;17.998;2023-07-08T01:22:04;52161.03;;;-145.37;88.24
13486;BME280;6815;59.336;17.998;2023-07-08T01:24:32;52216.91;;;-145.37;87.91
13486;BME280;6815;59.336;17.998;2023-07-08T01:27:00;52180.97;;;-145.37;87.90
13486;BME280;6815;59.336;17.998;2023-07-08T01:29:26;52186.97;;;-145.37;88.27
13486;BME280;6815;59.336;17.998;2023-07-08T01:31:55;52178.97;;;-145.37;88.47
13486;BME280;6815;59.336;17.998;2023-07-08T01:34:20;52206.94;;;-145.37;88.50
13486;BME280;6815;59.336;17.998;2023-07-08T01:36:49;52222.91;;;-145.37;88.28
13486;BME280;6815;59.336;17.998;2023-07-08T01:39:18;52204.94;;;-145.37;87.98
13486;BME280;6815;59.336;17.998;2023-07-08T01:41:45;52190.97;;;-145.37;87.95
13486;BME280;6815;59.336;17.998;2023-07-08T01:44:35;52202.94;;;-145.37;88.49
13486;BME280;6815;59.336;17.998;2023-07-08T01:47:10;52186.97;;;-145.37;88.14
13486;BME280;6815;59.336;17.998;2023-07-08T01:49:38;52204.94;;;-145.37;88.27
13486;BME280;6815;59.336;17.998;2023-07-08T01:52:05;52163.00;;;-145.37;88.44
13486;BME280;6815;59.336;17.998;2023-07-08T01:54:32;52198.94;;;-145.37;87.91
13486;BME280;6815;59.336;17.998;2023-07-08T01:56:57;52169.00;;;-145.37;88.19
13486;BME280;6815;59.336;17.998;2023-07-08T01:59:23;52177.00;;;-145.37;88.51
13486;BME280;6815;59.336;17.998;2023-07-08T02:01:50;52190.97;;;-145.37;88.75
13486;BME280;6815;59.336;17.998;2023-07-08T02:04:24;52204.94;;;-145.37;89.95
13486;BME280;6815;59.336;17.998;2023-07-08T02:06:59;52182.97;;;-145.37;90.28
13486;BME280;6815;59.336;17.998;2023-07-08T02:09:25;52159.03;;;-145.37;90.40
13486;BME280;6815;59.336;17.998;2023-07-08T02:11:52;52210.91;;;-145.37;91.26
13486;BME280;6815;59.336;17.998;2023-07-08T02:14:18;52157.03;;;-145.37;90.96
13486;BME280;6815;59.336;17.998;2023-07-08T02:16:43;52192.97;;;-145.37;91.30
13486;BME280;6815;59.336;17.998;2023-07-08T02:19:10;52198.94;;;-145.37;91.36
13486;BME280;6815;59.336;17.998;2023-07-08T02:21:37;52129.06;;;-145.37;90.67
13486;BME280;6815;59.336;17.998;2023-07-08T02:24:02;52147.03;;;-145.37;89.83
13486;BME280;6815;59.336;17.998;2023-07-08T02:26:28;52178.97;;;-145.37;90.22
13486;BME280;6815;59.336;17.998;2023-07-08T02:28:53;52204.94;;;-145.37;89.68
13486;BME280;6815;59.336;17.998;2023-07-08T02:31:19;52192.97;;;-145.37;89.90
13486;BME280;6815;59.336;17.998;2023-07-08T02:33:44;52200.94;;;-145.37;90.54
13486;BME280;6815;59.336;17.998;2023-07-08T02:36:10;52167.00;;;-145.37;89.85
13486;BME280;6815;59.336;17.998;2023-07-08T02:38:35;52165.00;;;-145.37;89.78
13486;BME280;6815;59.336;17.998;2023-07-08T02:41:01;52188.97;;;-145.37;89.83
13486;BME280;6815;59.336;17.998;2023-07-08T02:43:26;52208.94;;;-145.37;90.32
13486;BME280;6815;59.336;17.998;2023-07-08T02:45:52;52194.94;;;-145.37;90.68
13486;BME280;6815;59.336;17.998;2023-07-08T02:48:19;52188.97;;;-145.37;90.76
13486;BME280;6815;59.336;17.998;2023-07-08T02:50:44;52214.91;;;-145.37;90.12
13486;BME280;6815;59.336;17.998;2023-07-08T02:53:10;52169.00;;;-145.37;89.93
13486;BME280;6815;59.336;17.998;2023-07-08T02:55:35;52182.97;;;-145.37;90.11
13486;BME280;6815;59.336;17.998;2023-07-08T02:58:01;52159.03;;;-145.37;90.15
13486;BME280;6815;59.336;17.998;2023-07-08T03:00:26;52306.75;;;-145.37;90.45
13486;BME280;6815;59.336;17.998;2023-07-08T03:02:51;52190.97;;;-145.37;90.58
13486;BME280;6815;59.336;17.998;2023-07-08T03:05:17;52186.97;;;-145.37;90.90
13486;BME280;6815;59.336;17.998;2023-07-08T03:07:42;52182.97;;;-145.37;90.65
13486;BME280;6815;59.336;17.998;2023-07-08T03:10:08;52157.03;;;-145.37;90.08
13486;BME280;6815;59.336;17.998;2023-07-08T03:12:34;52147.03;;;-145.37;90.47
13486;BME280;6815;59.336;17.998;2023-07-08T03:14:59;52196.94;;;-145.37;90.05
13486;BME280;6815;59.336;17.998;2023-07-08T03:17:26;52204.94;;;-145.37;89.65
13486;BME280;6815;59.336;17.998;2023-07-08T03:19:52;52151.03;;;-145.37;89.69
13486;BME280;6815;59.336;17.998;2023-07-08T03:22:17;52192.97;;;-145.37;90.02
13486;BME280;6815;59.336;17.998;2023-07-08T03:24:43;52184.97;;;-145.37;90.00
13486;BME280;6815;59.336;17.998;2023-07-08T03:27:15;52228.88;;;-145.37;90.39
13486;BME280;6815;59.336;17.998;2023-07-08T03:29:40;52188.97;;;-145.37;90.25
13486;BME280;6815;59.336;17.998;2023-07-08T03:32:09;52180.97;;;-145.37;90.05
13486;BME280;6815;59.336;17.998;2023-07-08T03:34:35;52175.00;;;-145.37;89.92
13486;BME280;6815;59.336;17.998;2023-07-08T03:37:00;52186.97;;;-145.37;89.75
13486;BME280;6815;59.336;17.998;2023-07-08T03:39:26;52202.94;;;-145.37;89.71
13486;BME280;6815;59.336;17.998;2023-07-08T03:41:52;52180.97;;;-145.37;89.60
13486;BME280;6815;59.336;17.998;2023-07-08T03:44:18;52161.03;;;-145.37;89.38
13486;BME280;6815;59.336;17.998;2023-07-08T03:46:44;52180.97;;;-145.37;89.15
13486;BME280;6815;59.336;17.998;2023-07-08T03:49:11;52182.97;;;-145.37;88.81
13486;BME280;6815;59.336;17.998;2023-07-08T03:51:38;52292.78;;;-145.37;87.99
13486;BME280;6815;59.336;17.998;2023-07-08T03:54:06;52169.00;;;-145.37;88.09
13486;BME280;6815;59.336;17.998;2023-07-08T03:56:34;52198.94;;;-145.37;88.14
13486;BME280;6815;59.336;17.998;2023-07-08T03:59:00;52232.88;;;-145.37;87.60
13486;BME280;6815;59.336;17.998;2023-07-08T04:01:31;52196.94;;;-145.37;87.14
13486;BME280;6815;59.336;17.998;2023-07-08T04:03:58;52226.91;;;-145.37;87.04
13486;BME280;6815;59.336;17.998;2023-07-08T04:06:25;52196.94;;;-145.37;86.93
13486;BME280;6815;59.336;17.998;2023-07-08T04:08:56;52194.94;;;-145.37;86.20
13486;BME280;6815;59.336;17.998;2023-07-08T04:11:23;52220.91;;;-145.37;86.38
13486;BME280;6815;59.336;17.998;2023-07-08T04:13:49;52173.00;;;-145.37;85.91
13486;BME280;6815;59.336;17.998;2023-07-08T04:16:18;52184.97;;;-145.37;85.21
13486;BME280;6815;59.336;17.998;2023-07-08T04:18:47;52182.97;;;-145.37;84.59
13486;BME280;6815;59.336;17.998;2023-07-08T04:21:17;52206.94;;;-145.37;84.26
13486;BME280;6815;59.336;17.998;2023-07-08T04:23:42;52133.06;;;-145.37;82.72
13486;BME280;6815;59.336;17.998;2023-07-08T04:26:08;52173.00;;;-145.37;80.96
13486;BME280;6815;59.336;17.998;2023-07-08T04:28:34;52182.97;;;-145.37;79.15
13486;BME280;6815;59.336;17.998;2023-07-08T04:31:00;52153.03;;;-145.37;77.37
13486;BME280;6815;59.336;17.998;2023-07-08T04:33:26;52153.03;;;-145.37;76.24
13486;BME280;6815;59.336;17.998;2023-07-08T04:35:51;52163.00;;;-145.37;74.47
13486;BME280;6815;59.336;17.998;2023-07-08T04:38:22;52157.03;;;-145.37;73.49
13486;BME280;6815;59.336;17.998;2023-07-08T04:40:48;52109.13;;;-145.37;72.12
13486;BME280;6815;59.336;17.998;2023-07-08T04:43:16;52145.03;;;-145.37;70.61
13486;BME280;6815;59.336;17.998;2023-07-08T04:45:44;52121.09;;;-145.37;69.47
13486;BME280;6815;59.336;17.998;2023-07-08T04:48:14;52153.03;;;-145.37;68.47
13486;BME280;6815;59.336;17.998;2023-07-08T04:50:41;52169.00;;;-145.37;68.26
13486;BME280;6815;59.336;17.998;2023-07-08T04:53:08;52111.13;;;-145.37;66.98
13486;BME280;6815;59.336;17.998;2023-07-08T04:55:40;52123.09;;;-145.37;65.95
13486;BME280;6815;59.336;17.998;2023-07-08T04:58:06;52121.09;;;-145.37;65.33
13486;BME280;6815;59.336;17.998;2023-07-08T05:00:32;52099.13;;;-145.37;64.91
13486;BME280;6815;59.336;17.998;2023-07-08T05:02:57;52145.03;;;-145.37;63.85
13486;BME280;6815;59.336;17.998;2023-07-08T05:05:23;52113.09;;;-145.37;62.78
13486;BME280;6815;59.336;17.998;2023-07-08T05:07:48;52103.13;;;-145.37;61.51
13486;BME280;6815;59.336;17.998;2023-07-08T05:10:15;52151.03;;;-145.37;61.69
13486;BME280;6815;59.336;17.998;2023-07-08T05:12:41;52087.16;;;-145.37;60.43
13486;BME280;6815;59.336;17.998;2023-07-08T05:15:07;52105.13;;;-145.37;59.93
13486;BME280;6815;59.336;17.998;2023-07-08T05:17:32;52095.16;;;-145.37;59.12
13486;BME280;6815;59.336;17.998;2023-07-08T05:19:58;52123.09;;;-145.37;58.69
13486;BME280;6815;59.336;17.998;2023-07-08T05:22:26;52133.06;;;-145.37;58.50
13486;BME280;6815;59.336;17.998;2023-07-08T05:24:52;52113.09;;;-145.37;57.84
13486;BME280;6815;59.336;17.998;2023-07-08T05:27:20;52097.13;;;-145.37;57.12
13486;BME280;6815;59.336;17.998;2023-07-08T05:29:46;52099.13;;;-145.37;55.82
13486;BME280;6815;59.336;17.998;2023-07-08T05:32:12;52081.16;;;-145.37;55.49
13486;BME280;6815;59.336;17.998;2023-07-08T05:34:38;52157.03;;;-145.37;54.53
13486;BME280;6815;59.336;17.998;2023-07-08T05:37:03;52248.84;;;-145.37;54.01
13486;BME280;6815;59.336;17.998;2023-07-08T05:39:30;52153.03;;;-145.37;54.71
13486;BME280;6815;59.336;17.998;2023-07-08T05:41:55;52085.16;;;-145.37;54.08
13486;BME280;6815;59.336;17.998;2023-07-08T05:44:21;52101.13;;;-145.37;53.88
13486;BME280;6815;59.336;17.998;2023-07-08T05:46:47;52107.13;;;-145.37;53.23
13486;BME280;6815;59.336;17.998;2023-07-08T05:49:13;52057.22;;;-145.37;53.68
13486;BME280;6815;59.336;17.998;2023-07-08T05:51:38;52095.16;;;-145.37;52.81
13486;BME280;6815;59.336;17.998;2023-07-08T05:54:04;52065.19;;;-145.37;52.62
13486;BME280;6815;59.336;17.998;2023-07-08T05:56:29;52073.19;;;-145.37;51.96
13486;BME280;6815;59.336;17.998;2023-07-08T05:58:56;52125.09;;;-145.37;51.96
13486;BME280;6815;59.336;17.998;2023-07-08T06:01:21;52069.19;;;-145.37;51.85
13486;BME280;6815;59.336;17.998;2023-07-08T06:03:47;52105.13;;;-145.37;51.61
13486;BME280;6815;59.336;17.998;2023-07-08T06:06:13;52039.25;;;-145.37;51.25
13486;BME280;6815;59.336;17.998;2023-07-08T06:08:41;52093.16;;;-145.37;51.06
13486;BME280;6815;59.336;17.998;2023-07-08T06:11:06;52045.25;;;-145.37;50.63
13486;BME280;6815;59.336;17.998;2023-07-08T06:13:32;51999.34;;;-145.37;49.76
13486;BME280;6815;59.336;17.998;2023-07-08T06:15:57;52049.22;;;-145.37;49.71
13486;BME280;6815;59.336;17.998;2023-07-08T06:18:23;52055.22;;;-145.37;49.75
13486;BME280;6815;59.336;17.998;2023-07-08T06:20:53;52067.19;;;-145.37;48.86
13486;BME280;6815;59.336;17.998;2023-07-08T06:23:19;52051.22;;;-145.37;48.24
13486;BME280;6815;59.336;17.998;2023-07-08T06:25:45;52053.22;;;-145.37;48.28
13486;BME280;6815;59.336;17.998;2023-07-08T06:28:10;52023.28;;;-145.37;48.34
13486;BME280;6815;59.336;17.998;2023-07-08T06:30:36;52059.22;;;-145.37;48.44
13486;BME280;6815;59.336;17.998;2023-07-08T06:33:04;52055.22;;;-145.37;47.81
13486;BME280;6815;59.336;17.998;2023-07-08T06:35:29;52099.13;;;-145.37;48.06
13486;BME280;6815;59.336;17.998;2023-07-08T06:37:55;52093.16;;;-145.37;48.20
13486;BME280;6815;59.336;17.998;2023-07-08T06:40:20;52089.16;;;-145.37;48.11
13486;BME280;6815;59.336;17.998;2023-07-08T06:42:46;52087.16;;;-145.37;48.18
13486;BME280;6815;59.336;17.998;2023-07-08T06:45:11;52065.19;;;-145.37;47.30
13486;BME280;6815;59.336;17.998;2023-07-08T06:47:38;52067.19;;;-145.37;47.53
13486;BME280;6815;59.336;17.998;2023-07-08T06:50:04;52188.97;;;-145.37;46.69
13486;BME280;6815;59.336;17.998;2023-07-08T06:52:30;52069.19;;;-145.37;47.20
13486;BME280;6815;59.336;17.998;2023-07-08T06:55:00;52097.13;;;-145.37;48.80
13486;BME280;6815;59.336;17.998;2023-07-08T06:57:26;52023.28;;;-145.37;48.03
13486;BME280;6815;59.336;17.998;2023-07-08T06:59:53;52085.16;;;-145.37;47.92
13486;BME280;6815;59.336;17.998;2023-07-08T07:02:19;52089.16;;;-145.37;47.12
13486;BME280;6815;59.336;17.998;2023-07-08T07:04:46;52049.22;;;-145.37;47.72
13486;BME280;6815;59.336;17.998;2023-07-08T07:07:12;52101.13;;;-145.37;46.80
13486;BME280;6815;59.336;17.998;2023-07-08T07:09:38;52081.16;;;-145.37;46.30
13486;BME280;6815;59.336;17.998;2023-07-08T07:12:06;51973.38;;;-145.37;46.50
13486;BME280;6815;59.336;17.998;2023-07-08T07:14:32;52065.19;;;-145.37;47.44
13486;BME280;6815;59.336;17.998;2023-07-08T07:17:00;52073.19;;;-145.37;48.02
13486;BME280;6815;59.336;17.998;2023-07-08T07:19:26;52101.13;;;-145.37;48.29
13486;BME280;6815;59.336;17.998;2023-07-08T07:21:51;52009.31;;;-145.37;47.49
13486;BME280;6815;59.336;17.998;2023-07-08T07:24:17;52103.13;;;-145.37;47.22
13486;BME280;6815;59.336;17.998;2023-07-08T07:26:43;52081.16;;;-145.37;47.87
13486;BME280;6815;59.336;17.998;2023-07-08T07:29:08;52075.19;;;-145.37;47.70
13486;BME280;6815;59.336;17.998;2023-07-08T07:31:34;52043.25;;;-145.37;48.18
13486;BME280;6815;59.336;17.998;2023-07-08T07:34:01;52099.13;;;-145.37;48.05
13486;BME280;6815;59.336;17.998;2023-07-08T07:36:28;52113.09;;;-145.37;47.64
13486;BME280;6815;59.336;17.998;2023-07-08T07:38:54;52105.13;;;-145.37;48.12
13486;BME280;6815;59.336;17.998;2023-07-08T07:41:20;52099.13;;;-145.37;48.28
13486;BME280;6815;59.336;17.998;2023-07-08T07:43:47;52097.13;;;-145.37;49.16
13486;BME280;6815;59.336;17.998;2023-07-08T07:46:12;52067.19;;;-145.37;48.67
13486;BME280;6815;59.336;17.998;2023-07-08T07:48:39;52121.09;;;-145.37;48.39
13486;BME280;6815;59.336;17.998;2023-07-08T07:51:05;52075.19;;;-145.37;48.20
13486;BME280;6815;59.336;17.998;2023-07-08T07:53:31;52141.06;;;-145.37;47.46
13486;BME280;6815;59.336;17.998;2023-07-08T07:56:02;52087.16;;;-145.37;47.64
13486;BME280;6815;59.336;17.998;2023-07-08T07:58:29;52095.16;;;-145.37;47.71
13486;BME280;6815;59.336;17.998;2023-07-08T08:00:54;51953.41;;;-145.37;47.35
13486;BME280;6815;59.336;17.998;2023-07-08T08:03:20;52065.19;;;-145.37;46.92
13486;BME280;6815;59.336;17.998;2023-07-08T08:05:46;52258.84;;;-145.37;47.01
13486;BME280;6815;59.336;17.998;2023-07-08T08:08:15;52077.19;;;-145.37;47.07
13486;BME280;6815;59.336;17.998;2023-07-08T08:10:42;52097.13;;;-145.37;47.08
13486;BME280;6815;59.336;17.998;2023-07-08T08:13:09;52145.03;;;-145.37;47.60
13486;BME280;6815;59.336;17.998;2023-07-08T08:15:36;52089.16;;;-145.37;48.81
13486;BME280;6815;59.336;17.998;2023-07-08T08:18:04;52131.06;;;-145.37;48.75
13486;BME280;6815;59.336;17.998;2023-07-08T08:20:29;52007.31;;;-145.37;48.83
13486;BME280;6815;59.336;17.998;2023-07-08T08:22:56;52157.03;;;-145.37;48.99
13486;BME280;6815;59.336;17.998;2023-07-08T08:25:23;51997.34;;;-145.37;49.30
13486;BME280;6815;59.336;17.998;2023-07-08T08:28:00;52101.13;;;-145.37;49.55
13486;BME280;6815;59.336;17.998;2023-07-08T08:30:27;52274.81;;;-145.37;49.37
13486;BME280;6815;59.336;17.998;2023-07-08T08:32:53;52115.09;;;-145.37;49.39
13486;BME280;6815;59.336;17.998;2023-07-08T08:35:19;52107.13;;;-145.37;48.62
13486;BME280;6815;59.336;17.998;2023-07-08T08:37:46;52113.09;;;-145.37;48.87
13486;BME280;6815;59.336;17.998;2023-07-08T08:40:15;52091.16;;;-145.37;49.14
13486;BME280;6815;59.336;17.998;2023-07-08T08:42:45;52133.06;;;-145.37;48.61
13486;BME280;6815;59.336;17.998;2023-07-08T08:45:17;52069.19;;;-145.37;48.34
13486;BME280;6815;59.336;17.998;2023-07-08T08:47:48;52051.22;;;-145.37;48.47
13486;BME280;6815;59.336;17.998;2023-07-08T08:50:47;52308.75;;;-145.37;48.98
13486;BME280;6815;59.336;17.998;2023-07-08T08:53:17;52027.28;;;-145.37;49.83
13486;BME280;6815;59.336;17.998;2023-07-08T08:55:47;52119.09;;;-145.37;49.41
13486;BME280;6815;59.336;17.998;2023-07-08T08:58:37;52101.13;;;-145.37;48.80
13486;BME280;6815;59.336;17.998;2023-07-08T09:01:15;52083.16;;;-145.37;49.35
13486;BME280;6815;59.336;17.998;2023-07-08T09:04:12;52137.06;;;-145.37;49.71
13486;BME280;6815;59.336;17.998;2023-07-08T09:06:41;52123.09;;;-145.37;49.81
13486;BME280;6815;59.336;17.998;2023-07-08T09:09:32;52244.84;;;-145.37;49.76
13486;BME280;6815;59.336;17.998;2023-07-08T09:12:06;52097.13;;;-145.37;49.07
13486;BME280;6815;59.336;17.998;2023-07-08T09:14:37;52115.09;;;-145.37;49.12
13486;BME280;6815;59.336;17.998;2023-07-08T09:27:50;52240.88;;;-145.37;49.61
13486;BME280;6815;59.336;17.998;2023-07-08T09:30:19;52101.13;;;-145.37;49.27
13486;BME280;6815;59.336;17.998;2023-07-08T09:32:46;52097.13;;;-145.37;49.31
13486;BME280;6815;59.336;17.998;2023-07-08T09:37:48;52063.22;;;-145.37;49.46
13486;BME280;6815;59.336;17.998;2023-07-08T09:40:19;52129.06;;;-145.37;48.24
13486;BME280;6815;59.336;17.998;2023-07-08T09:42:50;52101.13;;;-145.37;47.36
13486;BME280;6815;59.336;17.998;2023-07-08T09:45:21;51973.38;;;-145.37;46.80
13486;BME280;6815;59.336;17.998;2023-07-08T09:47:52;52123.09;;;-145.37;47.69
13486;BME280;6815;59.336;17.998;2023-07-08T09:50:20;52113.09;;;-145.37;48.50
13486;BME280;6815;59.336;17.998;2023-07-08T09:52:47;52065.19;;;-145.37;48.56
13486;BME280;6815;59.336;17.998;2023-07-08T09:55:13;52101.13;;;-145.37;48.77
13486;BME280;6815;59.336;17.998;2023-07-08T09:57:40;52127.09;;;-145.37;48.51
13486;BME280;6815;59.336;17.998;2023-07-08T10:00:12;52107.13;;;-145.37;46.12
13486;BME280;6815;59.336;17.998;2023-07-08T10:02:45;52125.09;;;-145.37;46.18
13486;BME280;6815;59.336;17.998;2023-07-08T10:07:46;52055.22;;;-145.37;45.44
13486;BME280;6815;59.336;17.998;2023-07-08T10:10:18;52075.19;;;-145.37;45.58
13486;BME280;6815;59.336;17.998;2023-07-08T10:13:12;52041.25;;;-145.37;45.32
13486;BME280;6815;59.336;17.998;2023-07-08T10:15:43;52139.06;;;-145.37;44.88
13486;BME280;6815;59.336;17.998;2023-07-08T10:18:27;52093.16;;;-145.37;44.99
13486;BME280;6815;59.336;17.998;2023-07-08T10:21:31;52029.28;;;-145.37;45.30
13486;BME280;6815;59.336;17.998;2023-07-08T10:27:00;52065.19;;;-145.37;45.37
13486;BME280;6815;59.336;17.998;2023-07-08T10:35:23;52097.13;;;-145.37;44.08
13486;BME280;6815;59.336;17.998;2023-07-08T10:40:54;52093.16;;;-145.37;43.70
13486;BME280;6815;59.336;17.998;2023-07-08T10:59:33;52069.19;;;-145.37;43.56
13486;BME280;6815;59.336;17.998;2023-07-08T11:10:28;52085.16;;;-145.37;43.41
13486;BME280;6815;59.336;17.998;2023-07-08T11:13:25;52093.16;;;-145.37;43.18
13486;BME280;6815;59.336;17.998;2023-07-08T11:16:26;52067.19;;;-145.37;43.24
13486;BME280;6815;59.336;17.998;2023-07-08T11:19:04;52079.19;;;-145.37;42.91
13486;BME280;6815;59.336;17.998;2023-07-08T11:21:45;52131.06;;;-145.37;43.11
13486;BME280;6815;59.336;17.998;2023-07-08T11:24:31;52153.03;;;-145.37;42.51
13486;BME280;6815;59.336;17.998;2023-07-08T11:27:05;52015.28;;;-145.37;42.67
13486;BME280;6815;59.336;17.998;2023-07-08T11:32:18;52073.19;;;-145.37;43.27
13486;BME280;6815;59.336;17.998;2023-07-08T11:34:48;52099.13;;;-145.37;43.73
13486;BME280;6815;59.336;17.998;2023-07-08T11:37:15;52043.25;;;-145.37;43.69
13486;BME280;6815;59.336;17.998;2023-07-08T11:39:53;52196.94;;;-145.37;44.01
13486;BME280;6815;59.336;17.998;2023-07-08T11:42:32;52067.19;;;-145.37;43.66
13486;BME280;6815;59.336;17.998;2023-07-08T11:45:00;52262.81;;;-145.37;44.30
13486;BME280;6815;59.336;17.998;2023-07-08T11:47:39;52083.16;;;-145.37;44.14
13486;BME280;6815;59.336;17.998;2023-07-08T11:50:30;52087.16;;;-145.37;43.70
13486;BME280;6815;59.336;17.998;2023-07-08T11:53:07;52093.16;;;-145.37;43.39
13486;BME280;6815;59.336;17.998;2023-07-08T11:55:47;52085.16;;;-145.37;43.20
13486;BME280;6815;59.336;17.998;2023-07-08T11:58:26;52043.25;;;-145.37;43.99
13486;BME280;6815;59.336;17.998;2023-07-08T12:06:42;52127.09;;;-145.37;44.48
13486;BME280;6815;59.336;17.998;2023-07-08T12:09:25;52085.16;;;-145.37;44.67
13486;BME280;6815;59.336;17.998;2023-07-08T12:11:59;52011.31;;;-145.37;44.79
13486;BME280;6815;59.336;17.998;2023-07-08T12:14:25;52065.19;;;-145.37;44.31
13486;BME280;6815;59.336;17.998;2023-07-08T12:16:52;52135.06;;;-145.37;44.03
13486;BME280;6815;59.336;17.998;2023-07-08T12:19:20;52085.16;;;-145.37;44.02
13486;BME280;6815;59.336;17.998;2023-07-08T12:21:48;52113.09;;;-145.37;43.65
13486;BME280;6815;59.336;17.998;2023-07-08T12:24:14;52081.16;;;-145.37;43.52
13486;BME280;6815;59.336;17.998;2023-07-08T12:26:41;52093.16;;;-145.37;43.40
13486;BME280;6815;59.336;17.998;2023-07-08T12:29:13;52045.25;;;-145.37;43.06
13486;BME280;6815;59.336;17.998;2023-07-08T12:31:40;52089.16;;;-145.37;42.39
13486;BME280;6815;59.336;17.998;2023-07-08T12:34:13;52208.94;;;-145.37;42.47
13486;BME280;6815;59.336;17.998;2023-07-08T12:36:41;52057.22;;;-145.37;42.83
13486;BME280;6815;59.336;17.998;2023-07-08T12:39:11;52079.19;;;-145.37;42.72
13486;BME280;6815;59.336;17.998;2023-07-08T12:41:41;52107.13;;;-145.37;42.86
13486;BME280;6815;59.336;17.998;2023-07-08T12:44:17;52093.16;;;-145.37;43.15
13486;BME280;6815;59.336;17.998;2023-07-08T12:46:44;52053.22;;;-145.37;43.64
13486;BME280;6815;59.336;17.998;2023-07-08T12:49:10;52067.19;;;-145.37;43.91
13486;BME280;6815;59.336;17.998;2023-07-08T12:51:35;52043.25;;;-145.37;43.86
13486;BME280;6815;59.336;17.998;2023-07-08T12:54:00;52057.22;;;-145.37;43.45
13486;BME280;6815;59.336;17.998;2023-07-08T12:56:27;52101.13;;;-145.37;43.10
13486;BME280;6815;59.336;17.998;2023-07-08T12:58:56;52220.91;;;-145.37;43.23
13486;BME280;6815;59.336;17.998;2023-07-08T13:01:25;52067.19;;;-145.37;43.21
13486;BME280;6815;59.336;17.998;2023-07-08T13:03:54;52071.19;;;-145.37;43.40
13486;BME280;6815;59.336;17.998;2023-07-08T13:06:24;52163.00;;;-145.37;43.73
13486;BME280;6815;59.336;17.998;2023-07-08T13:08:52;52021.28;;;-145.37;43.15
13486;BME280;6815;59.336;17.998;2023-07-08T13:11:21;52095.16;;;-145.37;43.33
13486;BME280;6815;59.336;17.998;2023-07-08T13:13:52;52053.22;;;-145.37;42.81
13486;BME280;6815;59.336;17.998;2023-07-08T13:16:18;52065.19;;;-145.37;42.84
13486;BME280;6815;59.336;17.998;2023-07-08T13:18:44;52045.25;;;-145.37;42.72
13486;BME280;6815;59.336;17.998;2023-07-08T13:21:13;52093.16;;;-145.37;42.68
13486;BME280;6815;59.336;17.998;2023-07-08T13:23:40;52071.19;;;-145.37;42.53
13486;BME280;6815;59.336;17.998;2023-07-08T13:26:15;52041.25;;;-145.37;42.86
13486;BME280;6815;59.336;17.998;2023-07-08T13:28:43;52087.16;;;-145.37;43.26
13486;BME280;6815;59.336;17.998;2023-07-08T13:31:23;52246.84;;;-145.37;43.58
13486;BME280;6815;59.336;17.998;2023-07-08T13:33:53;52097.13;;;-145.37;43.41
13486;BME280;6815;59.336;17.998;2023-07-08T13:36:23;52047.25;;;-145.37;43.36
13486;BME280;6815;59.336;17.998;2023-07-08T13:38:51;51993.34;;;-145.37;43.17
13486;BME280;6815;59.336;17.998;2023-07-08T13:41:22;52053.22;;;-145.37;43.10
13486;BME280;6815;59.336;17.998;2023-07-08T13:43:53;52131.06;;;-145.37;43.15
13486;BME280;6815;59.336;17.998;2023-07-08T13:46:40;52053.22;;;-145.37;43.89
13486;BME280;6815;59.336;17.998;2023-07-08T13:49:22;52226.91;;;-145.37;45.33
13486;BME280;6815;59.336;17.998;2023-07-08T13:51:48;52079.19;;;-145.37;45.76
13486;BME280;6815;59.336;17.998;2023-07-08T13:56:46;52099.13;;;-145.37;47.46
13486;BME280;6815;59.336;17.998;2023-07-08T13:59:22;52051.22;;;-145.37;47.25
13486;BME280;6815;59.336;17.998;2023-07-08T14:01:55;52017.28;;;-145.37;46.72